EWG31AP EDDL-LFPO
Flight info
| Callsign | EWG31AP |
|---|---|
| Flight time | 0h 52m |
| Altitude | 24000 |
| Route | COL DCT ASBON DCT KUDIN DCT RENSA |
| Aircraft | A320/M-SDE3FGHIRWY/LB1 |
Departure
| Time | 2026-05-04 20:22 |
|---|---|
| Airport | Düsseldorf Airport (EDDL) |
Arrival
| Time | 2026-05-04 21:14 |
|---|---|
| Airport | Paris-Orly Airport (LFPO) |
| Time | Latitude | Longitude | Altitude | Speed | Heading |
|---|---|---|---|---|---|
| 2026-05-04 19:47 | 51.27911 | 6.76257 | 137 ft | 0 kts | 62° |
| 2026-05-04 20:03 | 51.27901 | 6.76227 | 137 ft | 4 kts | 61° |
| 2026-05-04 20:03 | 51.27889 | 6.76192 | 137 ft | 2 kts | 61° |
| 2026-05-04 20:03 | 51.27875 | 6.76161 | 137 ft | 4 kts | 33° |
| 2026-05-04 20:03 | 51.27854 | 6.76152 | 137 ft | 4 kts | 331° |
| 2026-05-04 20:04 | 51.27841 | 6.76177 | 137 ft | 2 kts | 271° |
| 2026-05-04 20:04 | 51.27841 | 6.76179 | 137 ft | 0 kts | 270° |
| 2026-05-04 20:06 | 51.27841 | 6.76169 | 137 ft | 2 kts | 270° |
| 2026-05-04 20:06 | 51.27841 | 6.76149 | 137 ft | 2 kts | 270° |
| 2026-05-04 20:06 | 51.27841 | 6.76126 | 137 ft | 3 kts | 270° |
| 2026-05-04 20:06 | 51.27843 | 6.76081 | 137 ft | 6 kts | 282° |
| 2026-05-04 20:07 | 51.27870 | 6.76047 | 137 ft | 5 kts | 349° |
| 2026-05-04 20:07 | 51.27906 | 6.76047 | 137 ft | 6 kts | 0° |
| 2026-05-04 20:07 | 51.27947 | 6.76047 | 137 ft | 6 kts | 0° |
| 2026-05-04 20:07 | 51.27990 | 6.76046 | 137 ft | 6 kts | 358° |
| 2026-05-04 20:08 | 51.28027 | 6.76046 | 137 ft | 5 kts | 1° |
| 2026-05-04 20:08 | 51.28058 | 6.76047 | 137 ft | 4 kts | 1° |
| 2026-05-04 20:08 | 51.28084 | 6.76039 | 137 ft | 5 kts | 339° |
| 2026-05-04 20:08 | 51.28110 | 6.76016 | 137 ft | 4 kts | 335° |
| 2026-05-04 20:09 | 51.28129 | 6.76025 | 137 ft | 2 kts | 34° |
| 2026-05-04 20:09 | 51.28133 | 6.76033 | 137 ft | 0 kts | 49° |
| 2026-05-04 20:10 | 51.28135 | 6.76037 | 137 ft | 4 kts | 49° |
| 2026-05-04 20:10 | 51.28174 | 6.76115 | 137 ft | 11 kts | 52° |
| 2026-05-04 20:10 | 51.28243 | 6.76259 | 137 ft | 22 kts | 53° |
| 2026-05-04 20:10 | 51.28339 | 6.76463 | 137 ft | 24 kts | 53° |
| 2026-05-04 20:11 | 51.28443 | 6.76679 | 137 ft | 25 kts | 52° |
| 2026-05-04 20:11 | 51.28553 | 6.76907 | 137 ft | 27 kts | 52° |
| 2026-05-04 20:11 | 51.28667 | 6.77147 | 137 ft | 28 kts | 53° |
| 2026-05-04 20:11 | 51.28786 | 6.77399 | 136 ft | 29 kts | 53° |
| 2026-05-04 20:12 | 51.28910 | 6.77657 | 137 ft | 29 kts | 53° |
| 2026-05-04 20:12 | 51.29035 | 6.77921 | 137 ft | 30 kts | 53° |
| 2026-05-04 20:12 | 51.29130 | 6.78121 | 137 ft | 11 kts | 52° |
| 2026-05-04 20:12 | 51.29173 | 6.78211 | 137 ft | 9 kts | 52° |
| 2026-05-04 20:13 | 51.29210 | 6.78288 | 137 ft | 8 kts | 52° |
| 2026-05-04 20:13 | 51.29258 | 6.78389 | 137 ft | 14 kts | 52° |
| 2026-05-04 20:13 | 51.29312 | 6.78503 | 138 ft | 11 kts | 52° |
| 2026-05-04 20:13 | 51.29345 | 6.78554 | 138 ft | 5 kts | 35° |
| 2026-05-04 20:14 | 51.29364 | 6.78568 | 138 ft | 2 kts | 18° |
| 2026-05-04 20:14 | 51.29374 | 6.78571 | 138 ft | 1 kts | 8° |
| 2026-05-04 20:14 | 51.29375 | 6.78571 | 138 ft | 0 kts | 6° |
| 2026-05-04 20:17 | 51.29389 | 6.78572 | 138 ft | 4 kts | 2° |
| 2026-05-04 20:17 | 51.29409 | 6.78571 | 138 ft | 3 kts | 356° |
| 2026-05-04 20:17 | 51.29419 | 6.78569 | 138 ft | 0 kts | 355° |
| 2026-05-04 20:18 | 51.29424 | 6.78569 | 139 ft | 1 kts | 356° |
| 2026-05-04 20:18 | 51.29425 | 6.78569 | 139 ft | 0 kts | 356° |
| 2026-05-04 20:20 | 51.29435 | 6.78568 | 139 ft | 6 kts | 356° |
| 2026-05-04 20:20 | 51.29477 | 6.78563 | 141 ft | 6 kts | 356° |
| 2026-05-04 20:20 | 51.29510 | 6.78555 | 143 ft | 5 kts | 343° |
| 2026-05-04 20:21 | 51.29535 | 6.78504 | 143 ft | 7 kts | 267° |
| 2026-05-04 20:21 | 51.29516 | 6.78459 | 143 ft | 0 kts | 232° |
| 2026-05-04 20:21 | 51.29467 | 6.78357 | 142 ft | 41 kts | 233° |
| 2026-05-04 20:22 | 51.29140 | 6.77675 | 135 ft | 110 kts | 232° |
| 2026-05-04 20:22 | 51.28568 | 6.76462 | 169 ft | 158 kts | 234° |
| 2026-05-04 20:22 | 51.27934 | 6.75048 | 814 ft | 156 kts | 232° |
| 2026-05-04 20:22 | 51.27280 | 6.73656 | 1476 ft | 160 kts | 230° |
| 2026-05-04 20:23 | 51.26569 | 6.72182 | 1917 ft | 174 kts | 232° |
| 2026-05-04 20:23 | 51.25830 | 6.70588 | 2461 ft | 182 kts | 232° |
| 2026-05-04 20:23 | 51.24865 | 6.69265 | 2976 ft | 190 kts | 207° |
| 2026-05-04 20:23 | 51.23714 | 6.68158 | 3447 ft | 201 kts | 215° |
| 2026-05-04 20:24 | 51.22553 | 6.66759 | 3946 ft | 214 kts | 215° |
| 2026-05-04 20:24 | 51.21234 | 6.65409 | 4370 ft | 237 kts | 209° |
| 2026-05-04 20:24 | 51.19744 | 6.64124 | 4892 ft | 256 kts | 208° |
| 2026-05-04 20:24 | 51.18106 | 6.62711 | 5514 ft | 270 kts | 209° |
| 2026-05-04 20:25 | 51.16492 | 6.61267 | 6510 ft | 269 kts | 209° |
| 2026-05-04 20:25 | 51.14856 | 6.59786 | 7384 ft | 273 kts | 209° |
| 2026-05-04 20:25 | 51.13200 | 6.58287 | 8272 ft | 274 kts | 209° |
| 2026-05-04 20:25 | 51.11530 | 6.56781 | 9170 ft | 277 kts | 209° |
| 2026-05-04 20:26 | 51.09841 | 6.55258 | 10019 ft | 280 kts | 209° |
| 2026-05-04 20:26 | 51.08082 | 6.53674 | 10390 ft | 302 kts | 209° |
| 2026-05-04 20:26 | 51.06093 | 6.52268 | 10625 ft | 325 kts | 200° |
| 2026-05-04 20:26 | 51.03997 | 6.50678 | 11011 ft | 340 kts | 208° |
| 2026-05-04 20:27 | 51.01930 | 6.48791 | 11687 ft | 345 kts | 211° |
| 2026-05-04 20:27 | 50.99869 | 6.46792 | 12413 ft | 349 kts | 212° |
| 2026-05-04 20:27 | 50.97803 | 6.44748 | 13147 ft | 352 kts | 212° |
| 2026-05-04 20:27 | 50.95700 | 6.42674 | 13877 ft | 356 kts | 211° |
| 2026-05-04 20:28 | 50.93578 | 6.40608 | 14524 ft | 359 kts | 211° |
| 2026-05-04 20:28 | 50.91436 | 6.38552 | 15180 ft | 362 kts | 211° |
| 2026-05-04 20:28 | 50.89263 | 6.36491 | 15820 ft | 364 kts | 211° |
| 2026-05-04 20:28 | 50.87076 | 6.34427 | 16456 ft | 367 kts | 210° |
| 2026-05-04 20:29 | 50.84901 | 6.32380 | 17074 ft | 370 kts | 210° |
| 2026-05-04 20:29 | 50.82679 | 6.30295 | 17698 ft | 373 kts | 210° |
| 2026-05-04 20:29 | 50.80442 | 6.28191 | 18295 ft | 376 kts | 210° |
| 2026-05-04 20:29 | 50.78188 | 6.26065 | 18810 ft | 378 kts | 210° |
| 2026-05-04 20:30 | 50.75921 | 6.23930 | 19331 ft | 380 kts | 210° |
| 2026-05-04 20:30 | 50.73634 | 6.21781 | 19860 ft | 383 kts | 210° |
| 2026-05-04 20:30 | 50.71340 | 6.19627 | 20385 ft | 385 kts | 210° |
| 2026-05-04 20:30 | 50.69035 | 6.17463 | 20920 ft | 386 kts | 210° |
| 2026-05-04 20:31 | 50.66721 | 6.15295 | 21454 ft | 388 kts | 210° |
| 2026-05-04 20:31 | 50.64392 | 6.13114 | 21941 ft | 390 kts | 210° |
| 2026-05-04 20:31 | 50.62051 | 6.10925 | 22408 ft | 392 kts | 210° |
| 2026-05-04 20:31 | 50.59691 | 6.08720 | 22903 ft | 395 kts | 210° |
| 2026-05-04 20:32 | 50.57353 | 6.06542 | 23363 ft | 397 kts | 210° |
| 2026-05-04 20:32 | 50.54964 | 6.04320 | 23789 ft | 400 kts | 210° |
| 2026-05-04 20:32 | 50.52560 | 6.02083 | 23938 ft | 404 kts | 210° |
| 2026-05-04 20:32 | 50.50103 | 5.99799 | 23977 ft | 414 kts | 210° |
| 2026-05-04 20:33 | 50.47611 | 5.97488 | 23975 ft | 417 kts | 210° |
| 2026-05-04 20:33 | 50.45113 | 5.95177 | 23965 ft | 417 kts | 210° |
| 2026-05-04 20:33 | 50.42605 | 5.92862 | 23965 ft | 418 kts | 210° |
| 2026-05-04 20:33 | 50.40102 | 5.90550 | 23972 ft | 418 kts | 210° |
| 2026-05-04 20:34 | 50.38077 | 5.88684 | 23976 ft | 418 kts | 210° |
| 2026-05-04 20:35 | 50.36368 | 5.87111 | 23979 ft | 418 kts | 210° |
| 2026-05-04 20:36 | 50.33863 | 5.84802 | 23972 ft | 417 kts | 210° |
| 2026-05-04 20:36 | 50.31362 | 5.82497 | 23970 ft | 417 kts | 210° |
| 2026-05-04 20:36 | 50.28854 | 5.80189 | 23968 ft | 417 kts | 210° |
| 2026-05-04 20:36 | 50.26356 | 5.77896 | 23960 ft | 417 kts | 210° |
| 2026-05-04 20:37 | 50.23856 | 5.75608 | 23961 ft | 417 kts | 210° |
| 2026-05-04 20:37 | 50.21388 | 5.73351 | 23962 ft | 416 kts | 210° |
| 2026-05-04 20:37 | 50.18885 | 5.71062 | 23963 ft | 416 kts | 210° |
| 2026-05-04 20:37 | 50.16350 | 5.68739 | 23980 ft | 428 kts | 210° |
| 2026-05-04 20:38 | 50.13750 | 5.66362 | 23977 ft | 439 kts | 210° |
| 2026-05-04 20:38 | 50.11080 | 5.63926 | 23971 ft | 448 kts | 210° |
| 2026-05-04 20:38 | 50.08368 | 5.61457 | 23969 ft | 453 kts | 210° |
| 2026-05-04 20:38 | 50.05644 | 5.58990 | 23961 ft | 455 kts | 210° |
| 2026-05-04 20:39 | 50.02905 | 5.56527 | 23969 ft | 454 kts | 210° |
| 2026-05-04 20:39 | 50.00165 | 5.54069 | 23975 ft | 454 kts | 210° |
| 2026-05-04 20:39 | 49.97430 | 5.51618 | 23971 ft | 454 kts | 210° |
| 2026-05-04 20:39 | 49.94696 | 5.49161 | 23968 ft | 454 kts | 210° |
| 2026-05-04 20:40 | 49.91962 | 5.46694 | 23969 ft | 454 kts | 210° |
| 2026-05-04 20:40 | 49.89267 | 5.44252 | 23986 ft | 454 kts | 211° |
| 2026-05-04 20:40 | 49.86536 | 5.41764 | 23962 ft | 457 kts | 211° |
| 2026-05-04 20:40 | 49.83793 | 5.39269 | 23952 ft | 457 kts | 211° |
| 2026-05-04 20:41 | 49.81046 | 5.36787 | 23956 ft | 457 kts | 211° |
| 2026-05-04 20:41 | 49.78298 | 5.34316 | 23962 ft | 456 kts | 211° |
| 2026-05-04 20:41 | 49.75550 | 5.31854 | 23964 ft | 456 kts | 211° |
| 2026-05-04 20:41 | 49.72811 | 5.29400 | 23966 ft | 456 kts | 211° |
| 2026-05-04 20:42 | 49.70231 | 5.26570 | 23961 ft | 455 kts | 221° |
| 2026-05-04 20:42 | 49.68032 | 5.23062 | 23962 ft | 455 kts | 231° |
| 2026-05-04 20:42 | 49.66239 | 5.19038 | 23958 ft | 455 kts | 236° |
| 2026-05-04 20:42 | 49.64520 | 5.14937 | 23957 ft | 455 kts | 236° |
| 2026-05-04 20:43 | 49.62798 | 5.10839 | 23952 ft | 455 kts | 236° |
| 2026-05-04 20:43 | 49.61069 | 5.06751 | 23956 ft | 455 kts | 236° |
| 2026-05-04 20:43 | 49.59333 | 5.02672 | 23957 ft | 455 kts | 236° |
| 2026-05-04 20:43 | 49.57709 | 4.98497 | 23952 ft | 455 kts | 244° |
| 2026-05-04 20:44 | 49.56578 | 4.93934 | 23956 ft | 456 kts | 249° |
| 2026-05-04 20:44 | 49.55510 | 4.89329 | 23962 ft | 457 kts | 249° |
| 2026-05-04 20:44 | 49.54462 | 4.84784 | 23956 ft | 457 kts | 250° |
| 2026-05-04 20:44 | 49.53402 | 4.80172 | 23953 ft | 457 kts | 250° |
| 2026-05-04 20:45 | 49.52338 | 4.75555 | 23954 ft | 454 kts | 249° |
| 2026-05-04 20:45 | 49.51303 | 4.71084 | 23751 ft | 435 kts | 249° |
| 2026-05-04 20:45 | 49.50294 | 4.66734 | 23435 ft | 431 kts | 249° |
| 2026-05-04 20:45 | 49.49286 | 4.62400 | 23152 ft | 430 kts | 249° |
| 2026-05-04 20:46 | 49.48280 | 4.58077 | 22884 ft | 428 kts | 249° |
| 2026-05-04 20:46 | 49.47277 | 4.53775 | 22610 ft | 427 kts | 249° |
| 2026-05-04 20:46 | 49.46272 | 4.49478 | 22239 ft | 426 kts | 249° |
| 2026-05-04 20:46 | 49.45272 | 4.45220 | 21602 ft | 422 kts | 249° |
| 2026-05-04 20:47 | 49.44276 | 4.40985 | 21020 ft | 421 kts | 249° |
| 2026-05-04 20:47 | 49.43282 | 4.36770 | 20451 ft | 418 kts | 249° |
| 2026-05-04 20:47 | 49.42292 | 4.32586 | 19894 ft | 415 kts | 249° |
| 2026-05-04 20:47 | 49.41311 | 4.28434 | 19367 ft | 413 kts | 249° |
| 2026-05-04 20:48 | 49.40335 | 4.24304 | 18840 ft | 409 kts | 249° |
| 2026-05-04 20:48 | 49.39374 | 4.20250 | 18535 ft | 397 kts | 249° |
| 2026-05-04 20:48 | 49.38442 | 4.16336 | 18318 ft | 385 kts | 249° |
| 2026-05-04 20:48 | 49.37527 | 4.12509 | 17821 ft | 379 kts | 249° |
| 2026-05-04 20:49 | 49.36619 | 4.08722 | 17264 ft | 376 kts | 249° |
| 2026-05-04 20:49 | 49.35731 | 4.05013 | 16708 ft | 374 kts | 249° |
| 2026-05-04 20:49 | 49.34837 | 4.01282 | 16171 ft | 372 kts | 249° |
| 2026-05-04 20:49 | 49.33935 | 3.97563 | 15633 ft | 370 kts | 247° |
| 2026-05-04 20:50 | 49.32644 | 3.94168 | 15116 ft | 367 kts | 233° |
| 2026-05-04 20:50 | 49.31116 | 3.91036 | 14579 ft | 366 kts | 232° |
| 2026-05-04 20:50 | 49.29577 | 3.87934 | 14072 ft | 365 kts | 232° |
| 2026-05-04 20:50 | 49.28035 | 3.84839 | 13771 ft | 365 kts | 232° |
| 2026-05-04 20:51 | 49.26490 | 3.81745 | 13509 ft | 365 kts | 232° |
| 2026-05-04 20:51 | 49.24945 | 3.78657 | 13299 ft | 365 kts | 232° |
| 2026-05-04 20:51 | 49.23406 | 3.75576 | 13100 ft | 363 kts | 232° |
| 2026-05-04 20:51 | 49.21882 | 3.72511 | 12873 ft | 361 kts | 232° |
| 2026-05-04 20:52 | 49.20365 | 3.69456 | 12662 ft | 360 kts | 232° |
| 2026-05-04 20:52 | 49.18854 | 3.66416 | 12455 ft | 359 kts | 232° |
| 2026-05-04 20:52 | 49.17345 | 3.63384 | 12249 ft | 357 kts | 232° |
| 2026-05-04 20:52 | 49.15843 | 3.60368 | 12044 ft | 356 kts | 232° |
| 2026-05-04 20:53 | 49.14346 | 3.57364 | 11838 ft | 355 kts | 232° |
| 2026-05-04 20:53 | 49.12872 | 3.54406 | 11638 ft | 354 kts | 232° |
| 2026-05-04 20:53 | 49.11382 | 3.51417 | 11429 ft | 354 kts | 232° |
| 2026-05-04 20:53 | 49.09877 | 3.48379 | 11365 ft | 355 kts | 232° |
| 2026-05-04 20:54 | 49.08407 | 3.45407 | 11320 ft | 355 kts | 232° |
| 2026-05-04 20:54 | 49.06915 | 3.42396 | 11267 ft | 355 kts | 232° |
| 2026-05-04 20:54 | 49.05428 | 3.39396 | 11223 ft | 355 kts | 232° |
| 2026-05-04 20:54 | 49.03942 | 3.36396 | 11168 ft | 354 kts | 232° |
| 2026-05-04 20:55 | 49.02456 | 3.33403 | 11062 ft | 353 kts | 232° |
| 2026-05-04 20:55 | 49.00977 | 3.30433 | 10928 ft | 350 kts | 232° |
| 2026-05-04 20:55 | 48.99504 | 3.27477 | 10950 ft | 350 kts | 232° |
| 2026-05-04 20:55 | 48.98026 | 3.24513 | 10949 ft | 350 kts | 232° |
| 2026-05-04 20:56 | 48.96553 | 3.21563 | 10950 ft | 350 kts | 232° |
| 2026-05-04 20:56 | 48.95079 | 3.18608 | 10956 ft | 350 kts | 232° |
| 2026-05-04 20:56 | 48.93603 | 3.15651 | 10948 ft | 350 kts | 232° |
| 2026-05-04 20:56 | 48.92131 | 3.12703 | 10949 ft | 350 kts | 232° |
| 2026-05-04 20:57 | 48.90654 | 3.09749 | 10952 ft | 350 kts | 232° |
| 2026-05-04 20:57 | 48.89180 | 3.06802 | 10954 ft | 350 kts | 232° |
| 2026-05-04 20:57 | 48.87703 | 3.03851 | 10952 ft | 350 kts | 232° |
| 2026-05-04 20:57 | 48.86229 | 3.00902 | 10947 ft | 351 kts | 232° |
| 2026-05-04 20:58 | 48.84773 | 2.97989 | 10953 ft | 351 kts | 232° |
| 2026-05-04 20:58 | 48.83297 | 2.95040 | 10947 ft | 346 kts | 232° |
| 2026-05-04 20:58 | 48.81874 | 2.92197 | 10835 ft | 331 kts | 232° |
| 2026-05-04 20:58 | 48.80507 | 2.89465 | 10711 ft | 318 kts | 232° |
| 2026-05-04 20:59 | 48.79195 | 2.86840 | 10590 ft | 306 kts | 232° |
| 2026-05-04 20:59 | 48.77928 | 2.84308 | 10469 ft | 296 kts | 232° |
| 2026-05-04 20:59 | 48.76698 | 2.81852 | 10234 ft | 290 kts | 232° |
| 2026-05-04 20:59 | 48.75483 | 2.79427 | 9923 ft | 288 kts | 232° |
| 2026-05-04 21:00 | 48.74277 | 2.77023 | 9555 ft | 286 kts | 232° |
| 2026-05-04 21:00 | 48.73076 | 2.74626 | 9178 ft | 284 kts | 232° |
| 2026-05-04 21:00 | 48.71884 | 2.72249 | 8796 ft | 283 kts | 232° |
| 2026-05-04 21:00 | 48.70695 | 2.69878 | 8412 ft | 281 kts | 232° |
| 2026-05-04 21:01 | 48.69512 | 2.67526 | 8036 ft | 280 kts | 232° |
| 2026-05-04 21:01 | 48.68335 | 2.65184 | 7934 ft | 280 kts | 232° |
| 2026-05-04 21:01 | 48.67155 | 2.62836 | 7945 ft | 281 kts | 232° |
| 2026-05-04 21:01 | 48.65971 | 2.60482 | 7947 ft | 281 kts | 232° |
| 2026-05-04 21:02 | 48.64800 | 2.58152 | 7948 ft | 282 kts | 232° |
| 2026-05-04 21:02 | 48.63618 | 2.55798 | 7671 ft | 280 kts | 232° |
| 2026-05-04 21:02 | 48.62440 | 2.53451 | 7264 ft | 280 kts | 232° |
| 2026-05-04 21:02 | 48.61268 | 2.51113 | 6895 ft | 277 kts | 232° |
| 2026-05-04 21:03 | 48.60109 | 2.48799 | 6513 ft | 276 kts | 232° |
| 2026-05-04 21:03 | 48.58953 | 2.46495 | 6131 ft | 274 kts | 232° |
| 2026-05-04 21:03 | 48.57798 | 2.44200 | 5722 ft | 273 kts | 232° |
| 2026-05-04 21:03 | 48.57038 | 2.42691 | 5532 ft | 272 kts | 232° |
| 2026-05-04 21:04 | 48.55905 | 2.40393 | 5277 ft | 272 kts | 237° |
| 2026-05-04 21:04 | 48.55252 | 2.37747 | 5024 ft | 268 kts | 259° |
| 2026-05-04 21:04 | 48.54961 | 2.35009 | 4773 ft | 261 kts | 262° |
| 2026-05-04 21:04 | 48.54715 | 2.32342 | 4587 ft | 251 kts | 262° |
| 2026-05-04 21:05 | 48.54482 | 2.29782 | 4437 ft | 242 kts | 262° |
| 2026-05-04 21:05 | 48.54254 | 2.27287 | 4324 ft | 239 kts | 262° |
| 2026-05-04 21:05 | 48.54026 | 2.24807 | 4197 ft | 238 kts | 262° |
| 2026-05-04 21:05 | 48.53798 | 2.22328 | 4080 ft | 238 kts | 262° |
| 2026-05-04 21:06 | 48.53569 | 2.19854 | 3986 ft | 237 kts | 262° |
| 2026-05-04 21:06 | 48.53341 | 2.17386 | 3975 ft | 238 kts | 262° |
| 2026-05-04 21:06 | 48.53109 | 2.14908 | 3978 ft | 239 kts | 262° |
| 2026-05-04 21:06 | 48.52870 | 2.12420 | 3976 ft | 240 kts | 262° |
| 2026-05-04 21:07 | 48.52630 | 2.09950 | 3973 ft | 233 kts | 262° |
| 2026-05-04 21:07 | 48.52396 | 2.07539 | 3974 ft | 231 kts | 262° |
| 2026-05-04 21:07 | 48.52430 | 2.05143 | 3978 ft | 229 kts | 289° |
| 2026-05-04 21:07 | 48.53249 | 2.03170 | 3984 ft | 226 kts | 316° |
| 2026-05-04 21:08 | 48.54408 | 2.01572 | 3988 ft | 226 kts | 321° |
| 2026-05-04 21:08 | 48.55611 | 2.00041 | 3984 ft | 226 kts | 323° |
| 2026-05-04 21:08 | 48.56988 | 1.98994 | 3983 ft | 222 kts | 350° |
| 2026-05-04 21:08 | 48.58514 | 1.98909 | 3983 ft | 220 kts | 12° |
| 2026-05-04 21:09 | 48.59941 | 1.99683 | 3983 ft | 218 kts | 33° |
| 2026-05-04 21:09 | 48.61063 | 2.01189 | 3982 ft | 217 kts | 54° |
| 2026-05-04 21:09 | 48.61825 | 2.03157 | 3983 ft | 217 kts | 62° |
| 2026-05-04 21:09 | 48.62538 | 2.05153 | 3981 ft | 211 kts | 62° |
| 2026-05-04 21:10 | 48.63218 | 2.07051 | 3910 ft | 202 kts | 62° |
| 2026-05-04 21:10 | 48.63876 | 2.08891 | 3710 ft | 195 kts | 62° |
| 2026-05-04 21:10 | 48.64510 | 2.10663 | 3452 ft | 189 kts | 62° |
| 2026-05-04 21:10 | 48.65123 | 2.12379 | 3207 ft | 183 kts | 62° |
| 2026-05-04 21:11 | 48.65721 | 2.14053 | 2960 ft | 178 kts | 61° |
| 2026-05-04 21:11 | 48.66303 | 2.15683 | 2726 ft | 175 kts | 61° |
| 2026-05-04 21:11 | 48.66873 | 2.17281 | 2496 ft | 171 kts | 62° |
| 2026-05-04 21:11 | 48.67438 | 2.18866 | 2263 ft | 170 kts | 61° |
| 2026-05-04 21:12 | 48.67997 | 2.20437 | 2059 ft | 170 kts | 61° |
| 2026-05-04 21:12 | 48.68550 | 2.21990 | 1845 ft | 164 kts | 61° |
| 2026-05-04 21:12 | 48.69067 | 2.23443 | 1624 ft | 150 kts | 61° |
| 2026-05-04 21:12 | 48.69544 | 2.24786 | 1409 ft | 141 kts | 61° |
| 2026-05-04 21:13 | 48.70004 | 2.26078 | 1203 ft | 139 kts | 61° |
| 2026-05-04 21:13 | 48.70461 | 2.27363 | 1020 ft | 138 kts | 61° |
| 2026-05-04 21:13 | 48.70916 | 2.28645 | 840 ft | 138 kts | 61° |
| 2026-05-04 21:13 | 48.71369 | 2.29923 | 667 ft | 138 kts | 61° |
| 2026-05-04 21:14 | 48.71820 | 2.31200 | 489 ft | 137 kts | 61° |
| 2026-05-04 21:14 | 48.72264 | 2.32457 | 318 ft | 137 kts | 61° |
| 2026-05-04 21:14 | 48.72685 | 2.33635 | 297 ft | 107 kts | 62° |
| 2026-05-04 21:14 | 48.72946 | 2.34372 | 293 ft | 37 kts | 63° |
| 2026-05-04 21:15 | 48.73002 | 2.34673 | 289 ft | 28 kts | 82° |
| 2026-05-04 21:15 | 48.73028 | 2.34944 | 289 ft | 21 kts | 82° |
| 2026-05-04 21:15 | 48.73041 | 2.35080 | 291 ft | 12 kts | 84° |
| 2026-05-04 21:15 | 48.73031 | 2.35180 | 295 ft | 4 kts | 114° |
| 2026-05-04 21:16 | 48.73030 | 2.35183 | 294 ft | 0 kts | 114° |
| 2026-05-04 21:17 | 48.73026 | 2.35197 | 292 ft | 3 kts | 114° |
| 2026-05-04 21:17 | 48.73017 | 2.35231 | 291 ft | 5 kts | 107° |
| 2026-05-04 21:17 | 48.73013 | 2.35288 | 293 ft | 7 kts | 91° |
| 2026-05-04 21:18 | 48.73021 | 2.35356 | 294 ft | 6 kts | 72° |
| 2026-05-04 21:18 | 48.73038 | 2.35407 | 289 ft | 5 kts | 60° |
| 2026-05-04 21:18 | 48.73056 | 2.35453 | 291 ft | 7 kts | 57° |
| 2026-05-04 21:18 | 48.73080 | 2.35507 | 294 ft | 6 kts | 56° |
| 2026-05-04 21:19 | 48.73094 | 2.35572 | 294 ft | 7 kts | 96° |
| 2026-05-04 21:19 | 48.73069 | 2.35624 | 294 ft | 5 kts | 126° |
| 2026-05-04 21:19 | 48.73069 | 2.35673 | 291 ft | 6 kts | 71° |
| 2026-05-04 21:19 | 48.73101 | 2.35755 | 290 ft | 9 kts | 58° |
| 2026-05-04 21:20 | 48.73117 | 2.35797 | 294 ft | 4 kts | 68° |
| 2026-05-04 21:20 | 48.73113 | 2.35829 | 291 ft | 3 kts | 117° |
| 2026-05-04 21:20 | 48.73099 | 2.35855 | 295 ft | 3 kts | 133° |
| 2026-05-04 21:20 | 48.73086 | 2.35876 | 292 ft | 2 kts | 133° |
| 2026-05-04 21:21 | 48.73076 | 2.35891 | 293 ft | 2 kts | 133° |
| 2026-05-04 21:21 | 48.73072 | 2.35898 | 293 ft | 0 kts | 134° |